Last 30 Days

Kelseyville-South

Daily Data | America/Los_Angeles
as of 10/26/20 8:39 AM PDT
Date Daily Max Temp (°F) Time of Max Temp Daily Min Temp (°F) Time of Min Temp Daily Rain (In) Monthly Rain (In) Seasonal Rainfall (In) Wind Spd (mph) Daily Max Wind (mph) Time of Max Wind Max Wind Dir (°) Daily ETo (in) 7 Day ETo (in) Daily Solar Rad (Cal/cm2) Dew Pt (°F) Max RH (%) Min RH (%) Daily Leaf Wet Hrs (hrs) Hrs 70-85F (hrs) Hrs > 95F (hrs) Powdery Mildew Stress (pts) GDDs (DL) GDDs (Mx/Mn) Seas GDDs (DL) Seas GDDs (Smpl) Hrs <= 32F (hrs) Hrs <= 28F (hrs) Chilling <=45F (hrs) Chill Hrs 32-45F (hrs) Utah Chilling (Units) Degree Hrs (hrs) Bat Volt Min Day (V)
10/25/20 69.7 1539 36.3 0732 0.00 0.00 0.02 3.0 20.5 1219 E | 89 0.133 0.83 398 18.4 94 3 0.0 0.00 0.00 0 6.9 3.0 3,590 3,507 0.0 0.0 7.7 7.7 1.5 13.4 12.6
10/24/20 73.0 1456 38.1 0747 0.00 0.00 0.02 1.6 14.2 1656 WSW | 243 0.118 0.83 392 39.0 89 18 0.0 3.74 0.00 0 7.5 5.5 3,583 3,504 0.0 0.0 8.2 8.2 4.0 33.2 12.6
10/23/20 76.3 1428 36.7 0732 0.00 0.00 0.02 1.1 11.1 1444 W | 263 0.116 0.85 404 31.4 79 16 0.0 5.25 0.00 10 8.5 6.5 3,575 3,498 0.0 0.0 8.5 8.5 3.5 51.3 12.6
10/22/20 81.0 1510 41.6 0736 0.00 0.00 0.02 1.3 10.1 1324 S | 173 0.127 0.85 409 22.2 86 3 0.0 7.42 0.00 20 11.0 11.3 3,567 3,492 0.0 0.0 5.5 5.5 3.0 92.3 12.6
10/21/20 86.3 1536 41.9 0659 0.00 0.00 0.02 0.7 9.5 1340 NE | 40 0.118 0.85 404 39.0 80 14 0.0 5.28 0.00 0 13.7 14.1 3,556 3,480 0.0 0.0 3.6 3.6 1.0 136.5 12.6
10/20/20 91.1 1720 41.5 0735 0.00 0.00 0.02 0.2 6.8 1232 NE | 49 0.108 0.86 409 37.3 83 9 0.0 3.02 0.00 0 14.5 16.3 3,542 3,466 0.0 0.0 3.8 3.8 1.0 151.5 12.6
10/19/20 88.3 1517 42.1 0720 0.00 0.00 0.02 0.5 8.4 1659 SW | 228 0.116 0.86 411 37.4 79 14 0.0 3.79 0.00 0 14.6 15.2 3,528 3,450 0.0 0.0 2.2 2.2 1.0 154.0 12.6
10/18/20 90.3 1520 44.0 0637 0.00 0.00 0.02 0.7 11.1 1538 W | 262 0.130 0.87 423 35.4 70 10 0.0 2.94 0.00 0 15.1 17.2 3,513 3,435 0.0 0.0 1.8 1.8 1.0 166.7 12.7
10/17/20 95.1 1555 42.4 0713 0.00 0.00 0.02 0.9 18.8 1540 WNW | 297 0.134 0.86 431 28.9 68 4 0.0 3.31 0.03 0 16.8 18.7 3,498 3,418 0.0 0.0 3.3 3.3 1.0 198.7 12.6
10/16/20 95.1 1724 43.1 0735 0.00 0.00 0.02 0.3 6.8 1203 ENE | 67 0.117 0.80 439 29.1 72 4 0.0 2.73 0.04 10 16.4 19.1 3,481 3,399 0.0 0.0 2.8 2.8 1.0 193.2 12.6
10/15/20 93.4 1558 44.6 0741 0.00 0.00 0.02 0.8 11.8 1556 ENE | 70 0.131 0.80 432 33.6 81 6 0.0 2.98 0.00 20 17.3 19.0 3,465 3,380 0.0 0.0 0.4 0.4 0.5 197.3 12.7
10/14/20 88.1 1611 46.9 0721 0.00 0.00 0.02 0.3 11.1 1253 NE | 54 0.120 0.79 432 43.8 88 14 0.0 4.79 0.00 30 15.2 17.5 3,448 3,361 0.0 0.0 0.0 0.0 0.5 152.0 12.7
10/13/20 89.1 1522 43.8 0656 0.00 0.00 0.02 0.9 14.2 1500 WNW | 282 0.115 0.83 434 44.9 92 17 0.0 3.27 0.00 40 15.9 16.5 3,432 3,343 0.0 0.0 1.5 1.5 0.0 137.5 12.7
10/12/20 84.9 1719 40.6 0654 0.00 0.00 0.02 0.5 9.5 1236 NNE | 28 0.123 0.85 450 41.5 90 11 0.0 7.74 0.00 50 12.9 12.7 3,417 3,327 0.0 0.0 4.7 4.7 1.0 114.0 12.7
10/11/20 79.1 1653 40.4 0719 0.00 0.00 0.02 0.5 9.5 1439 NE | 52 0.116 0.85 449 41.6 98 14 7.8 5.87 0.00 30 9.6 9.8 3,404 3,314 0.0 0.0 4.5 4.5 1.5 63.3 12.6
10/10/20 68.6 1544 47.9 0055 0.00 0.00 0.02 2.6 14.2 1437 SW | 231 0.072 0.90 235 51.9 96 61 0.7 0.00 0.00 40 8.1 8.3 3,394 3,304 0.0 0.0 0.0 0.0 2.0 14.0 12.7
10/9/20 77.1 1520 39.1 0625 0.00 0.00 0.02 1.5 13.5 1336 WNW | 297 0.125 1.01 423 44.1 92 24 0.0 6.24 0.00 50 10.5 8.1 3,386 3,296 0.0 0.0 6.8 6.8 1.0 60.4 12.6
10/8/20 79.1 1324 45.6 0248 0.00 0.00 0.02 1.9 14.5 1456 WSW | 249 0.114 0.97 344 40.9 86 11 0.0 6.43 0.00 30 9.9 12.3 3,376 3,288 0.0 0.0 0.0 0.0 2.0 62.6 12.7
10/7/20 87.2 1531 36.8 0714 0.00 0.00 0.02 1.3 13.2 1402 W | 259 0.161 0.95 494 29.2 71 3 0.0 3.00 0.00 10 13.3 12.0 3,366 3,276 0.0 0.0 6.2 6.2 1.5 139.1 12.6
10/6/20 91.3 1535 40.0 0701 0.00 0.00 0.02 0.8 10.5 1550 SW | 235 0.141 0.92 470 32.4 79 6 0.0 2.94 0.00 20 15.4 15.6 3,352 3,264 0.0 0.0 4.2 4.2 1.0 170.1 12.6
10/5/20 90.9 1623 41.8 0717 0.00 0.00 0.02 0.4 9.8 1354 NE | 51 0.124 0.91 456 33.8 80 6 0.0 2.77 0.00 30 15.7 16.4 3,337 3,248 0.0 0.0 3.4 3.4 1.0 176.1 12.6
10/4/20 92.5 1649 42.4 0740 0.00 0.00 0.02 1.0 16.2 1532 WSW | 248 0.159 0.92 508 27.3 71 3 0.0 2.88 0.00 40 17.0 17.4 3,321 3,232 0.0 0.0 2.8 2.8 1.0 200.0 12.7
10/3/20 96.5 1350 46.4 0648 0.00 0.00 0.02 2.0 20.5 1600 W | 259 0.190 0.95 491 29.4 74 5 0.0 1.67 3.04 50 20.4 21.5 3,304 3,214 0.0 0.0 0.0 0.0 0.5 257.2 12.7
10/2/20 91.3 1557 51.4 0733 0.00 0.00 0.02 0.3 6.8 1820 WNW | 295 0.086 0.90 293 41.7 72 12 0.0 3.29 0.00 60 17.6 21.4 3,284 3,193 0.0 0.0 0.0 0.0 0.0 177.9 12.7
10/1/20 92.1 1514 52.1 0735 0.00 0.00 0.02 0.1 4.8 1447 NE | 50 0.089 0.97 308 42.7 69 11 0.0 3.36 0.00 70 18.5 22.1 3,266 3,171 0.0 0.0 0.0 0.0 0.0 178.9 12.7
9/30/20 99.0 1632 48.0 0717 0.00 0.00 0.02 0.4 9.5 1738 WNW | 282 0.134 1.05 466 37.3 72 7 0.0 2.73 3.15 80 20.5 23.5 3,248 3,149 0.0 0.0 0.0 0.0 0.0 243.4 12.7
9/29/20 95.5 1555 47.6 0653 0.00 0.00 0.02 0.6 10.5 1649 WSW | 239 0.128 1.10 406 35.8 70 6 0.0 2.47 0.25 90 18.0 21.6 3,227 3,126 0.0 0.0 0.0 0.0 0.0 200.3 12.7
9/28/20 95.6 1550 54.6 0054 0.00 0.00 0.02 1.4 18.2 0417 ENE | 70 0.135 1.17 409 25.4 48 4 0.0 11.55 0.40 100 27.4 25.1 3,209 3,104 0.0 0.0 0.0 0.0 0.0 323.8 12.8
9/27/20 93.6 1559 46.0 0700 0.00 0.00 0.02 2.2 18.8 1524 ENE | 60 0.189 1.20 508 35.6 94 5 0.0 6.13 0.00 100 22.2 19.8 3,182 3,079 0.0 0.0 0.0 0.0 -16.0 276.9 12.7
9/26/20 83.5 1445 50.6 0641 0.00 0.00 0.02 1.6 16.2 1700 WNW | 286 0.142 1.16 443 49.8 90 27 0.0 9.76 0.00 100 16.2 17.1 3,160 3,059 0.0 0.0 0.0 0.0 0.0 131.2 12.7
Max 99.0 - 54.6 - 0.00 0.00 - 3.0 20.5 - - 0.190 - 508 51.9 98 61 7.8 11.55 3.15 100 27.4 25.1 - - 0.0 0.0 8.5 8.5 4.0 323.8 12.8
Avg - - - - - 0.00 - 1.0 - - - - - - 36.0 - - - 4.25 0.23 - 14.9 15.5 - - 0.0 0.0 2.7 2.7 0.5 - -
Min 68.6 - 36.3 - 0.00 0.00 - 0.1 4.8 - - 0.072 - 235 18.4 48 3 0.0 0.00 0.00 0 6.9 3.0 - - 0.0 0.0 0.0 0.0 -16.0 13.4 12.6
Total - - - - - - - - - - - - - - - - - - 127.36 6.91 - 446.3 464.4 - - 0.0 0.0 81.9 81.9 15.5 - -